Time;durP1;ratioP1;P1;durP2;ratioP2;P2;SDS_P1;SDS_P2;PMS_P1;PMS_P2;Temp;Humidity;BMP_temperature;BMP_pressure;BME280_temperature;BME280_humidity;BME280_pressure;Samples;Min_cycle;Max_cycle;Signal;HPM_P1;HPM_P2
2023/05/12 00:00:59;;;;;;;22.50;10.07;;;;;;;12.27;68.80;100654.28;5107831;27;20130;-62
2023/05/12 00:03:26;;;;;;;20.13;8.00;;;;;;;12.23;69.82;100652.56;5111431;27;20498;-61
2023/05/12 00:05:53;;;;;;;25.30;9.38;;;;;;;12.23;70.05;100652.56;5114913;27;20463;-58
2023/05/12 00:08:19;;;;;;;23.65;10.43;;;;;;;12.21;69.53;100660.34;5107201;27;20071;-62
2023/05/12 00:10:46;;;;;;;26.55;10.52;;;;;;;12.22;70.10;100656.00;5112342;27;20484;-57
2023/05/12 00:13:13;;;;;;;25.70;10.65;;;;;;;12.25;69.37;100658.59;5111751;27;20052;-61
2023/05/12 00:15:40;;;;;;;24.90;8.85;;;;;;;12.23;69.60;100660.34;5111518;27;20051;-56
2023/05/12 00:18:07;;;;;;;21.52;9.45;;;;;;;12.23;70.32;100662.94;5107624;27;20104;-57
2023/05/12 00:20:33;;;;;;;25.90;11.27;;;;;;;12.24;70.58;100675.06;5092638;28;20065;-59
2023/05/12 00:23:00;;;;;;;27.15;10.70;;;;;;;12.27;69.76;100669.88;5115908;27;20101;-58
2023/05/12 00:25:26;;;;;;;25.42;9.20;;;;;;;12.27;69.70;100671.59;5114213;27;20124;-58
2023/05/12 00:27:53;;;;;;;29.05;9.23;;;;;;;12.22;69.93;100676.78;5114820;27;20094;-61
2023/05/12 00:30:19;;;;;;;23.92;9.20;;;;;;;12.22;69.96;100676.78;5095186;28;20039;-63
2023/05/12 00:32:46;;;;;;;28.08;9.80;;;;;;;12.18;69.49;100675.91;5111895;27;20055;-57
2023/05/12 00:35:14;;;;;;;28.67;10.02;;;;;;;12.17;69.75;100688.91;5107898;27;20051;-62
2023/05/12 00:37:41;;;;;;;30.27;9.57;;;;;;;12.16;70.51;100689.78;5103918;27;20051;-58
2023/05/12 00:40:08;;;;;;;28.33;9.07;;;;;;;12.13;70.83;100687.16;5120778;27;20081;-64
2023/05/12 00:42:35;;;;;;;28.73;9.75;;;;;;;12.10;71.07;100695.81;5112106;27;20079;-60
2023/05/12 00:45:03;;;;;;;26.67;8.50;;;;;;;12.06;70.09;100701.88;5115743;27;20051;-61
2023/05/12 00:47:31;;;;;;;26.50;7.90;;;;;;;11.99;71.50;100700.94;5110536;27;20078;-62
2023/05/12 00:49:58;;;;;;;23.10;7.03;;;;;;;11.97;71.59;100700.09;5113336;27;20403;-63
2023/05/12 00:52:26;;;;;;;22.55;7.57;;;;;;;11.92;71.23;100699.22;5103420;27;20071;-57
2023/05/12 00:54:52;;;;;;;20.70;7.15;;;;;;;11.91;71.44;100707.84;5106838;28;20075;-64
2023/05/12 00:57:21;;;;;;;23.52;8.10;;;;;;;11.89;70.73;100704.41;5115533;27;20098;-59
2023/05/12 00:59:48;;;;;;;21.83;7.05;;;;;;;11.87;71.18;100700.91;5107222;27;20063;-60
2023/05/12 01:02:14;;;;;;;27.13;9.10;;;;;;;11.87;71.29;100711.31;5106778;27;20475;-58
2023/05/12 01:04:41;;;;;;;17.42;6.18;;;;;;;11.85;70.37;100707.84;5104094;27;20412;-63
2023/05/12 01:07:14;;;;;;;24.75;7.47;;;;;;;11.86;70.56;100709.59;5106937;27;20135;-61
2023/05/12 01:09:41;;;;;;;15.65;6.00;;;;;;;11.80;70.53;100706.13;5102879;27;20134;-59
2023/05/12 01:12:08;;;;;;;15.70;5.75;;;;;;;11.78;71.14;100707.81;5107955;27;20538;-61
2023/05/12 01:14:35;;;;;;;19.38;7.35;;;;;;;11.71;71.11;100711.25;5106956;27;20554;-56
2023/05/12 01:17:07;;;;;;;17.77;7.10;;;;;;;11.69;71.95;100707.81;5105090;27;20565;-57
2023/05/12 01:19:53;;;;;;;15.57;5.57;;;;;;;11.57;71.13;100714.69;5106578;28;20041;-62
2023/05/12 01:22:20;;;;;;;21.80;6.97;;;;;;;11.56;71.12;100712.94;5105854;28;20498;-56
2023/05/12 01:24:57;;;;;;;17.27;6.35;;;;;;;11.54;71.52;100714.66;5109761;27;20074;-59
2023/05/12 01:27:26;;;;;;;21.20;6.63;;;;;;;11.53;71.90;100712.94;5103319;28;20043;-60
2023/05/12 01:29:56;;;;;;;18.85;6.45;;;;;;;11.46;72.16;100711.19;5107945;28;20088;-61
2023/05/12 01:32:23;;;;;;;19.25;6.82;;;;;;;11.46;71.62;100706.00;5111530;28;20043;-64
2023/05/12 01:34:49;;;;;;;19.40;6.65;;;;;;;11.49;71.94;100716.38;5107828;28;20043;-57
2023/05/12 01:37:16;;;;;;;26.10;7.90;;;;;;;11.48;71.52;100722.41;5104099;28;20067;-60
2023/05/12 01:39:43;;;;;;;20.08;7.20;;;;;;;11.46;72.12;100716.38;5099408;28;20048;-60
2023/05/12 01:42:10;;;;;;;18.58;6.25;;;;;;;11.44;72.86;100720.66;5108734;28;20318;-60
2023/05/12 01:44:36;;;;;;;21.95;7.07;;;;;;;11.50;71.96;100722.44;5109892;28;20097;-62
2023/05/12 01:47:03;;;;;;;22.08;7.18;;;;;;;11.48;73.31;100725.00;5104290;28;20047;-60
2023/05/12 01:49:30;;;;;;;23.98;7.93;;;;;;;11.48;72.15;100722.41;5092612;28;20076;-63
2023/05/12 01:51:57;;;;;;;21.50;7.47;;;;;;;11.51;72.35;100730.22;5110121;28;20070;-61
2023/05/12 01:54:23;;;;;;;22.90;7.80;;;;;;;11.52;72.81;100726.75;5104275;28;20040;-54
2023/05/12 01:56:50;;;;;;;28.95;7.32;;;;;;;11.56;71.77;100741.47;5104020;28;20071;-59
2023/05/12 01:59:16;;;;;;;23.90;7.28;;;;;;;11.59;71.71;100745.84;5107731;28;20044;-62
2023/05/12 02:01:43;;;;;;;22.30;7.45;;;;;;;11.61;72.59;100749.28;5103907;28;20036;-60
2023/05/12 02:04:10;;;;;;;21.40;7.78;;;;;;;11.64;72.36;100751.03;5113290;28;20051;-59
2023/05/12 02:06:36;;;;;;;23.25;7.82;;;;;;;11.64;72.67;100745.84;5099559;28;20043;-57
2023/05/12 02:09:03;;;;;;;24.02;7.55;;;;;;;11.67;71.46;100756.22;5104013;28;20074;-59
2023/05/12 02:11:30;;;;;;;22.65;7.55;;;;;;;11.68;72.89;100744.97;5104116;28;20078;-60
2023/05/12 02:13:57;;;;;;;19.30;7.47;;;;;;;11.67;72.29;100745.84;5106910;28;20089;-61
2023/05/12 02:16:24;;;;;;;22.92;7.25;;;;;;;11.69;72.21;100749.34;5109107;28;20050;-62
2023/05/12 02:18:50;;;;;;;19.35;7.32;;;;;;;11.69;71.88;100754.53;5105709;28;20052;-62
2023/05/12 02:21:17;;;;;;;21.67;6.75;;;;;;;11.68;72.19;100757.94;5110958;28;20062;-59
2023/05/12 02:23:44;;;;;;;17.85;6.70;;;;;;;11.67;72.21;100758.81;5101896;28;20534;-57
2023/05/12 02:26:10;;;;;;;20.80;6.43;;;;;;;11.64;71.19;100761.41;5106182;28;20051;-59
2023/05/12 02:28:37;;;;;;;17.60;6.05;;;;;;;11.59;72.78;100765.72;5102618;28;20039;-58
2023/05/12 02:31:04;;;;;;;17.95;5.90;;;;;;;11.57;72.49;100770.88;5103736;28;20083;-62
2023/05/12 02:33:30;;;;;;;18.08;6.05;;;;;;;11.56;72.55;100770.00;5115057;27;20105;-57
2023/05/12 02:35:57;;;;;;;17.70;6.45;;;;;;;11.57;72.20;100770.88;5108502;27;20495;-59
2023/05/12 02:38:24;;;;;;;17.17;6.35;;;;;;;11.56;71.64;100770.00;5115301;27;20056;-55
2023/05/12 02:40:50;;;;;;;19.63;6.88;;;;;;;11.59;72.07;100781.28;5115800;27;20211;-57
2023/05/12 02:43:17;;;;;;;19.55;5.95;;;;;;;11.59;72.14;100784.75;5106685;27;20047;-58
2023/05/12 02:45:44;;;;;;;18.52;7.55;;;;;;;11.61;72.31;100776.94;5108464;27;20055;-60
2023/05/12 02:48:10;;;;;;;17.58;6.95;;;;;;;11.61;71.75;100784.72;5106640;27;20117;-58
2023/05/12 02:50:37;;;;;;;19.48;7.22;;;;;;;11.57;72.35;100784.75;5109871;27;20039;-56
2023/05/12 02:53:04;;;;;;;20.20;6.60;;;;;;;11.57;71.90;100787.34;5103302;27;20559;-65
2023/05/12 02:55:31;;;;;;;13.60;5.60;;;;;;;11.55;72.39;100789.03;5107697;27;20067;-62
2023/05/12 02:57:57;;;;;;;16.25;6.20;;;;;;;11.54;72.21;100797.69;5104578;27;20071;-60
2023/05/12 03:00:24;;;;;;;16.50;6.45;;;;;;;11.54;71.12;100795.09;5101706;27;20043;-60
2023/05/12 03:02:50;;;;;;;15.88;5.68;;;;;;;11.53;71.15;100800.28;5111101;27;20117;-61
2023/05/12 03:05:17;;;;;;;18.92;6.57;;;;;;;11.52;71.41;100799.41;5110455;27;20075;-55
2023/05/12 03:07:47;;;;;;;17.02;6.70;;;;;;;11.52;71.76;100798.53;5105633;27;20048;-66
2023/05/12 03:10:14;;;;;;;16.23;6.55;;;;;;;11.52;70.67;100801.16;5112726;27;20736;-62
2023/05/12 03:12:41;;;;;;;14.93;6.20;;;;;;;11.53;71.56;100806.34;5105306;27;20043;-65
2023/05/12 03:15:08;;;;;;;13.27;6.30;;;;;;;11.51;71.11;100808.03;5109643;27;20093;-64
2023/05/12 03:17:35;;;;;;;15.73;5.20;;;;;;;11.47;71.69;100806.28;5114379;27;20051;-58
2023/05/12 03:20:03;;;;;;;12.13;4.70;;;;;;;11.44;71.50;100811.47;5100991;27;20595;-60
2023/05/12 03:22:30;;;;;;;15.07;5.07;;;;;;;11.40;70.83;100809.72;5106925;27;20058;-58
2023/05/12 03:24:56;;;;;;;17.40;6.18;;;;;;;11.38;70.58;100806.25;5105803;27;20477;-61
2023/05/12 03:27:23;;;;;;;14.57;5.72;;;;;;;11.32;71.61;100807.94;5103823;28;20051;-61
2023/05/12 03:29:49;;;;;;;15.90;6.22;;;;;;;11.31;71.40;100806.19;5113974;27;20436;-59
2023/05/12 03:32:17;;;;;;;15.60;5.50;;;;;;;11.30;71.24;100804.47;5108593;27;20043;-64
2023/05/12 03:34:43;;;;;;;15.65;6.35;;;;;;;11.31;71.17;100807.91;5082633;28;20494;-63
2023/05/12 03:37:10;;;;;;;15.40;6.43;;;;;;;11.31;71.25;100806.19;5108026;27;20113;-58
2023/05/12 03:39:36;;;;;;;13.63;5.82;;;;;;;11.35;70.89;100811.41;5110349;27;20055;-59
2023/05/12 03:42:03;;;;;;;16.27;5.68;;;;;;;11.35;70.77;100811.41;5104898;27;20459;-62
2023/05/12 03:44:30;;;;;;;15.68;4.90;;;;;;;11.36;71.30;100813.13;5106620;27;20071;-61
2023/05/12 03:46:56;;;;;;;11.48;5.57;;;;;;;11.39;71.39;100818.34;5111545;27;20495;-61
2023/05/12 03:49:23;;;;;;;12.98;5.47;;;;;;;11.37;72.24;100815.75;5105550;27;20134;-58
2023/05/12 03:51:50;;;;;;;15.43;5.72;;;;;;;11.37;71.29;100814.88;5108320;27;20039;-60
2023/05/12 03:54:16;;;;;;;14.65;5.30;;;;;;;11.38;71.64;100811.44;5093916;28;20072;-60
2023/05/12 03:56:43;;;;;;;21.95;6.47;;;;;;;11.40;71.21;100820.09;5107404;27;20051;-60
2023/05/12 03:59:10;;;;;;;12.13;4.60;;;;;;;11.39;70.83;100818.34;5112144;27;20055;-59
2023/05/12 04:01:37;;;;;;;12.80;4.65;;;;;;;11.36;70.96;100823.53;5109994;27;20097;-58
2023/05/12 04:04:04;;;;;;;12.50;4.38;;;;;;;11.32;70.98;100820.91;5105702;27;20093;-60
2023/05/12 04:06:31;;;;;;;12.80;4.75;;;;;;;11.29;71.34;100820.88;5100186;27;20043;-61
2023/05/12 04:08:57;;;;;;;12.82;5.40;;;;;;;11.28;70.76;100824.31;5110915;27;20081;-63
2023/05/12 04:11:24;;;;;;;13.02;5.30;;;;;;;11.27;72.14;100821.72;5109867;27;20094;-58
2023/05/12 04:13:51;;;;;;;12.32;5.68;;;;;;;11.28;71.26;100826.06;5111244;27;20043;-62
2023/05/12 04:16:17;;;;;;;13.70;5.07;;;;;;;11.27;70.77;100835.56;5108214;27;20131;-57
2023/05/12 04:18:44;;;;;;;14.57;4.80;;;;;;;11.26;71.90;100828.66;5110456;27;20040;-59
2023/05/12 04:21:11;;;;;;;12.60;5.07;;;;;;;11.24;71.45;100838.13;5110247;27;20383;-59
2023/05/12 04:23:37;;;;;;;13.90;5.65;;;;;;;11.22;71.96;100846.75;5112600;27;20130;-61
2023/05/12 04:26:04;;;;;;;15.05;4.88;;;;;;;11.20;71.14;100844.16;5109750;27;20595;-60
2023/05/12 04:28:30;;;;;;;14.48;4.93;;;;;;;11.16;72.27;100842.41;5109861;27;20689;-60
2023/05/12 04:31:02;;;;;;;11.27;4.75;;;;;;;11.16;71.78;100852.78;5116224;27;20071;-57
2023/05/12 04:33:29;;;;;;;14.02;5.15;;;;;;;11.12;71.85;100846.72;5109103;27;20046;-58
2023/05/12 04:35:57;;;;;;;12.85;4.50;;;;;;;11.12;70.90;100851.00;5112182;27;20086;-59
2023/05/12 04:38:23;;;;;;;14.68;5.53;;;;;;;11.11;70.95;100854.47;5081902;28;20116;-58
2023/05/12 04:40:50;;;;;;;14.15;4.78;;;;;;;11.11;71.38;100854.47;5110827;27;20116;-57
2023/05/12 04:43:16;;;;;;;11.73;4.60;;;;;;;11.11;71.89;100859.66;5108813;27;20105;-58
2023/05/12 04:45:46;;;;;;;17.35;5.85;;;;;;;11.11;71.32;100859.66;5119755;27;20100;-59
2023/05/12 04:48:13;;;;;;;12.85;4.90;;;;;;;11.12;71.03;100856.19;5123748;27;20096;-56
2023/05/12 04:50:39;;;;;;;13.85;4.85;;;;;;;11.12;71.41;100861.38;5123976;27;20097;-59
2023/05/12 04:53:06;;;;;;;14.98;5.45;;;;;;;11.14;71.01;100859.66;5122251;27;20402;-61
2023/05/12 04:55:32;;;;;;;14.27;6.15;;;;;;;11.16;71.66;100868.31;5123412;27;20043;-60
2023/05/12 04:57:59;;;;;;;13.75;4.85;;;;;;;11.18;71.32;100866.63;5123823;27;20053;-60
2023/05/12 05:00:25;;;;;;;14.30;5.40;;;;;;;11.22;71.68;100878.75;5119038;27;20107;-58
2023/05/12 05:02:52;;;;;;;15.48;5.03;;;;;;;11.24;72.08;100879.63;5123657;27;20133;-61
2023/05/12 05:05:19;;;;;;;17.90;5.65;;;;;;;11.22;72.05;100876.16;5120379;27;20039;-60
2023/05/12 05:07:45;;;;;;;14.35;6.05;;;;;;;11.22;72.15;100881.34;5123391;27;20039;-60
2023/05/12 05:10:12;;;;;;;15.85;4.95;;;;;;;11.22;71.74;100878.75;5125191;27;20408;-57
2023/05/12 05:12:39;;;;;;;13.65;5.18;;;;;;;11.23;72.09;100883.09;5126511;27;20051;-59
2023/05/12 05:15:08;;;;;;;15.60;4.45;;;;;;;11.21;72.12;100887.38;5122749;27;20075;-59
2023/05/12 05:17:35;;;;;;;19.30;4.78;;;;;;;11.18;71.58;100882.19;5118229;27;20051;-60
2023/05/12 05:20:02;;;;;;;15.80;5.53;;;;;;;11.17;72.28;100885.63;5117904;27;20043;-59
2023/05/12 05:22:38;;;;;;;14.38;5.03;;;;;;;11.17;71.39;100896.88;5120294;27;20573;-62
2023/05/12 05:25:05;;;;;;;16.42;5.07;;;;;;;11.19;72.14;100889.09;5122968;27;21095;-62
2023/05/12 05:27:32;;;;;;;19.65;5.35;;;;;;;11.21;71.01;100899.50;5120795;27;20099;-60
2023/05/12 05:29:58;;;;;;;17.10;6.05;;;;;;;11.24;72.19;100902.97;5125130;27;20603;-62
2023/05/12 05:32:25;;;;;;;15.20;5.78;;;;;;;11.25;72.21;100915.06;5122648;27;20594;-55
2023/05/12 05:34:52;;;;;;;25.48;6.57;;;;;;;11.27;71.05;100913.38;5124371;28;20050;-59
2023/05/12 05:37:19;;;;;;;20.00;6.07;;;;;;;11.28;72.10;100915.09;5124839;28;20070;-58
2023/05/12 05:39:45;;;;;;;19.10;6.80;;;;;;;11.27;72.31;100922.84;5123169;28;20047;-55
2023/05/12 05:42:12;;;;;;;17.55;6.07;;;;;;;11.29;71.29;100929.78;5124163;27;20111;-59
2023/05/12 05:44:39;;;;;;;14.93;4.90;;;;;;;11.29;71.47;100926.34;5123781;27;20166;-61
2023/05/12 05:47:05;;;;;;;17.00;5.80;;;;;;;11.31;71.73;100935.88;5115201;27;20067;-61
2023/05/12 05:49:32;;;;;;;14.32;4.82;;;;;;;11.31;71.45;100933.28;5121920;27;20068;-61
2023/05/12 05:51:59;;;;;;;18.05;5.25;;;;;;;11.30;71.24;100928.97;5122789;28;20066;-59
2023/05/12 05:54:25;;;;;;;15.60;5.45;;;;;;;11.32;72.03;100932.41;5118088;27;20517;-62
2023/05/12 05:56:52;;;;;;;13.90;5.43;;;;;;;11.30;71.17;100934.16;5115147;28;20066;-60
2023/05/12 05:59:18;;;;;;;13.30;4.95;;;;;;;11.39;71.15;100937.66;5124008;28;20043;-60
2023/05/12 06:01:45;;;;;;;15.32;5.45;;;;;;;11.40;71.05;100939.41;5120784;27;20134;-60
2023/05/12 06:04:12;;;;;;;14.68;5.88;;;;;;;11.43;71.73;100939.44;5121742;28;20103;-61
2023/05/12 06:06:38;;;;;;;13.73;4.95;;;;;;;11.47;71.19;100946.38;5120831;28;20054;-61
2023/05/12 06:09:06;;;;;;;14.45;5.55;;;;;;;11.50;71.57;100941.22;5116352;27;20081;-60
2023/05/12 06:11:32;;;;;;;15.15;4.93;;;;;;;11.52;71.55;100949.88;5125562;27;20138;-59
2023/05/12 06:13:59;;;;;;;14.93;5.47;;;;;;;11.48;71.12;100947.25;5127061;27;20527;-57
2023/05/12 06:16:25;;;;;;;14.05;4.38;;;;;;;11.55;71.75;100959.44;5113328;27;20047;-61
2023/05/12 06:18:52;;;;;;;13.27;4.70;;;;;;;11.59;71.26;100960.31;5124716;27;20061;-59
2023/05/12 06:21:18;;;;;;;14.32;5.63;;;;;;;11.57;71.60;100952.50;5125654;27;20035;-58
2023/05/12 06:23:45;;;;;;;13.10;4.50;;;;;;;11.62;71.57;100957.75;5114920;27;20479;-59
2023/05/12 06:26:12;;;;;;;11.43;4.40;;;;;;;11.65;71.77;100956.03;5106583;27;20078;-61
2023/05/12 06:28:38;;;;;;;11.15;4.25;;;;;;;11.72;70.65;100956.94;5107620;27;20185;-59
2023/05/12 06:31:07;;;;;;;13.38;4.75;;;;;;;11.81;71.58;100959.59;5109468;27;20070;-58
2023/05/12 06:33:34;;;;;;;12.85;7.15;;;;;;;11.89;71.78;100963.97;5114043;27;20614;-63
2023/05/12 06:36:01;;;;;;;46.58;23.02;;;;;;;11.97;71.06;100962.31;5109255;27;20130;-57
2023/05/12 06:38:27;;;;;;;23.75;12.80;;;;;;;12.04;71.62;100969.28;5110969;27;20611;-60
2023/05/12 06:40:54;;;;;;;28.77;15.55;;;;;;;12.11;71.53;100969.31;5114774;27;20050;-64
2023/05/12 06:43:22;;;;;;;28.35;13.05;;;;;;;12.11;70.86;100964.13;5118456;27;20489;-61
2023/05/12 06:45:48;;;;;;;18.05;9.38;;;;;;;12.15;71.14;100977.16;5117936;27;20552;-58
2023/05/12 06:48:15;;;;;;;17.77;8.30;;;;;;;12.21;71.05;100973.72;5115354;27;20047;-60
2023/05/12 06:50:42;;;;;;;17.45;8.93;;;;;;;12.25;69.93;100983.25;5111822;27;20449;-61
2023/05/12 06:53:08;;;;;;;10.00;3.60;;;;;;;12.28;70.82;100987.59;5117413;27;20828;-61
2023/05/12 06:55:35;;;;;;;8.80;3.00;;;;;;;12.24;71.04;100986.72;5119782;27;20180;-59
2023/05/12 06:58:01;;;;;;;6.93;2.75;;;;;;;12.19;69.79;100983.22;5118656;27;20043;-59
2023/05/12 07:00:28;;;;;;;7.82;3.17;;;;;;;12.14;71.08;100984.94;5114095;27;20047;-58
2023/05/12 07:02:55;;;;;;;6.50;3.38;;;;;;;12.13;69.91;100988.38;5118894;27;20047;-62
2023/05/12 07:05:22;;;;;;;7.40;3.42;;;;;;;12.16;71.15;100984.06;5116529;27;20054;-63
2023/05/12 07:07:49;;;;;;;5.75;2.95;;;;;;;12.12;70.73;100981.47;5117720;27;20071;-58
2023/05/12 07:10:15;;;;;;;6.95;2.80;;;;;;;12.11;69.93;100990.09;5113854;27;20368;-61
2023/05/12 07:12:42;;;;;;;7.32;2.67;;;;;;;12.08;70.18;100986.63;5114783;27;20035;-59
2023/05/12 07:15:09;;;;;;;8.00;3.17;;;;;;;12.08;70.96;100991.84;5112289;27;20120;-54
2023/05/12 07:17:36;;;;;;;4.40;2.30;;;;;;;12.03;70.07;100988.28;5113909;27;20052;-59
2023/05/12 07:20:04;;;;;;;6.25;2.63;;;;;;;12.00;71.35;100995.19;5118942;27;20055;-63
2023/05/12 07:22:31;;;;;;;7.80;2.85;;;;;;;11.98;71.02;100995.19;5113982;27;20044;-60
2023/05/12 07:24:58;;;;;;;8.90;3.85;;;;;;;12.01;70.57;101000.41;5116774;27;20494;-57
2023/05/12 07:27:24;;;;;;;5.47;2.30;;;;;;;11.98;70.44;101000.38;5115860;27;20133;-62
2023/05/12 07:29:51;;;;;;;6.20;2.22;;;;;;;11.98;71.36;101000.38;5116036;27;20146;-62
2023/05/12 07:32:18;;;;;;;5.47;2.35;;;;;;;11.98;71.13;101000.38;5115585;27;20134;-61
2023/05/12 07:34:47;;;;;;;4.82;1.90;;;;;;;12.03;70.75;100997.81;5117608;27;20057;-59
2023/05/12 07:37:14;;;;;;;4.78;2.33;;;;;;;12.02;72.19;101011.66;5114444;27;20056;-59
2023/05/12 07:39:41;;;;;;;8.73;3.03;;;;;;;12.00;71.08;101009.06;5115352;27;20067;-60
2023/05/12 07:42:08;;;;;;;9.52;3.88;;;;;;;11.96;71.04;100999.50;5118261;27;20070;-61
2023/05/12 07:44:35;;;;;;;9.85;3.45;;;;;;;11.88;72.13;101003.75;5111769;27;20134;-61
2023/05/12 07:47:01;;;;;;;9.70;3.97;;;;;;;11.87;72.08;101002.03;5112854;27;20063;-61
2023/05/12 07:49:28;;;;;;;10.02;4.03;;;;;;;11.87;71.24;101007.22;5116056;27;20070;-62
2023/05/12 07:51:54;;;;;;;9.38;3.67;;;;;;;11.81;72.72;101003.72;5115220;27;20100;-59
2023/05/12 07:54:21;;;;;;;7.88;3.22;;;;;;;11.80;71.84;101001.13;5120601;27;20107;-60
2023/05/12 07:56:48;;;;;;;10.75;4.70;;;;;;;11.87;71.73;101009.81;5127430;27;20039;-61
2023/05/12 07:59:15;;;;;;;7.90;2.63;;;;;;;11.89;71.72;101008.97;5125326;27;20187;-64
2023/05/12 08:01:42;;;;;;;6.95;3.65;;;;;;;11.87;71.85;101013.28;5125198;27;20074;-59
2023/05/12 08:04:08;;;;;;;5.75;2.53;;;;;;;11.97;71.93;101016.81;5120079;27;20493;-65
2023/05/12 08:06:35;;;;;;;8.60;2.92;;;;;;;11.95;71.42;101006.44;5125797;27;20695;-62
2023/05/12 08:09:02;;;;;;;8.98;3.63;;;;;;;11.96;71.45;101012.50;5116866;27;20126;-60
2023/05/12 08:11:29;;;;;;;7.68;3.40;;;;;;;12.03;71.11;101016.84;5123355;27;20100;-62
2023/05/12 08:13:56;;;;;;;10.75;3.97;;;;;;;12.11;72.23;101016.06;5127800;27;20078;-58
2023/05/12 08:16:22;;;;;;;8.00;3.53;;;;;;;12.21;72.48;101028.25;5126243;27;20050;-59
2023/05/12 08:18:49;;;;;;;10.75;3.55;;;;;;;12.22;72.15;101017.00;5123584;27;20039;-61
2023/05/12 08:21:16;;;;;;;12.13;5.03;;;;;;;12.24;71.11;101030.88;5119182;27;20039;-59
2023/05/12 08:23:43;;;;;;;15.15;3.80;;;;;;;12.17;72.33;101021.31;5126422;27;20047;-59
2023/05/12 08:26:10;;;;;;;9.40;3.40;;;;;;;12.10;71.03;101027.31;5126214;27;20051;-63
2023/05/12 08:28:37;;;;;;;7.75;3.60;;;;;;;12.04;70.96;101031.59;5124511;27;20088;-61
2023/05/12 08:31:04;;;;;;;7.70;3.60;;;;;;;11.93;72.17;101033.25;5124118;27;20047;-61
2023/05/12 08:33:30;;;;;;;9.32;2.83;;;;;;;11.90;71.04;101034.09;5127054;27;20055;-62
2023/05/12 08:35:57;;;;;;;5.75;3.55;;;;;;;11.87;71.29;101033.19;5126593;27;20747;-60
2023/05/12 08:38:24;;;;;;;6.75;2.92;;;;;;;11.92;71.82;101041.91;5125384;27;20043;-60
2023/05/12 08:41:15;;;;;;;6.95;2.55;;;;;;;11.92;71.37;101045.34;5126099;27;20070;-59
2023/05/12 08:43:44;;;;;;;5.75;2.45;;;;;;;12.05;71.15;101033.31;5105506;27;20066;-55
2023/05/12 08:46:12;;;;;;;6.50;2.50;;;;;;;12.11;71.47;101034.25;5117562;27;20059;-59
2023/05/12 08:48:39;;;;;;;7.47;3.03;;;;;;;12.14;71.86;101036.88;5121464;27;20075;-60
2023/05/12 08:51:10;;;;;;;8.75;4.32;;;;;;;12.16;71.75;101037.75;5117948;27;20071;-61
2023/05/12 08:53:39;;;;;;;6.40;3.45;;;;;;;12.21;71.84;101046.44;5118378;27;20050;-62
2023/05/12 08:56:08;;;;;;;9.13;3.80;;;;;;;12.27;71.20;101043.91;5120140;27;20066;-62
2023/05/12 08:58:37;;;;;;;13.32;4.80;;;;;;;12.32;71.46;101057.78;5121139;27;20141;-59
2023/05/12 09:01:10;;;;;;;12.45;5.03;;;;;;;12.39;71.68;101043.06;5114701;27;20481;-58
2023/05/12 09:03:37;;;;;;;15.38;5.10;;;;;;;12.44;70.72;101049.19;5118929;27;20441;-59
2023/05/12 09:06:05;;;;;;;10.00;4.68;;;;;;;12.52;70.47;101051.81;5123528;27;20047;-60
2023/05/12 09:08:33;;;;;;;10.38;4.53;;;;;;;12.62;70.61;101044.06;5115093;27;20050;-62
2023/05/12 09:11:01;;;;;;;11.85;5.07;;;;;;;12.64;71.05;101053.63;5120424;27;20047;-59
2023/05/12 09:13:39;;;;;;;10.25;4.25;;;;;;;12.63;71.25;101056.22;5122422;27;20045;-62
2023/05/12 09:16:11;;;;;;;13.40;5.30;;;;;;;12.63;70.49;101061.41;5121269;27;20043;-63
2023/05/12 09:18:47;;;;;;;9.38;4.45;;;;;;;12.52;70.31;101054.41;5121783;27;20073;-62
2023/05/12 09:21:14;;;;;;;10.70;4.63;;;;;;;12.48;70.58;101052.66;5120486;27;20071;-62
2023/05/12 09:23:51;;;;;;;10.27;4.57;;;;;;;12.44;71.07;101062.19;5118738;27;20575;-60
2023/05/12 09:26:17;;;;;;;12.68;5.22;;;;;;;12.47;70.77;101062.19;5123711;27;20055;-62
2023/05/12 09:28:44;;;;;;;10.82;4.50;;;;;;;12.53;70.50;101060.50;5117848;27;20096;-62
2023/05/12 09:31:21;;;;;;;9.88;4.35;;;;;;;12.56;69.96;101061.38;5115916;27;20051;-61
2023/05/12 09:33:49;;;;;;;13.40;5.20;;;;;;;12.66;70.25;101058.84;5117500;27;20130;-59
2023/05/12 09:36:17;;;;;;;11.48;4.15;;;;;;;12.73;70.48;101063.16;5114083;28;20556;-62
2023/05/12 09:38:44;;;;;;;12.65;4.53;;;;;;;12.75;70.87;101061.47;5121158;28;20062;-61
2023/05/12 09:41:11;;;;;;;10.88;3.92;;;;;;;12.68;70.18;101060.56;5113557;27;20043;-57
2023/05/12 09:43:46;;;;;;;8.68;3.78;;;;;;;12.75;70.67;101061.47;5119955;27;20099;-59
2023/05/12 09:46:13;;;;;;;10.93;4.32;;;;;;;12.86;70.63;101069.28;5127476;27;20062;-58
2023/05/12 09:48:40;;;;;;;10.35;4.78;;;;;;;12.93;70.51;101070.19;5125571;27;20066;-59
2023/05/12 09:51:09;;;;;;;10.32;5.25;;;;;;;12.92;71.16;101073.66;5123915;27;20088;-58
2023/05/12 09:53:41;;;;;;;9.90;5.72;;;;;;;12.89;71.23;101073.63;5117945;27;20074;-57
2023/05/12 09:56:10;;;;;;;6.72;3.65;;;;;;;12.85;70.51;101073.66;5120513;27;20039;-59
2023/05/12 09:58:41;;;;;;;12.20;5.95;;;;;;;12.88;70.91;101074.50;5122307;27;20078;-57
2023/05/12 10:01:11;;;;;;;12.70;5.55;;;;;;;12.85;69.94;101072.75;5124678;27;20394;-58
2023/05/12 10:03:53;;;;;;;17.70;8.07;;;;;;;12.84;70.32;101077.09;5122270;27;20051;-58
2023/05/12 10:06:32;;;;;;;31.33;12.88;;;;;;;12.86;69.75;101082.28;5103635;27;20047;-60
2023/05/12 10:09:07;;;;;;;10.85;5.50;;;;;;;12.90;70.28;101075.41;5105701;27;20047;-59
2023/05/12 10:11:35;;;;;;;12.95;5.40;;;;;;;13.00;69.69;101078.91;5127532;27;20062;-58
2023/05/12 10:14:02;;;;;;;15.32;5.60;;;;;;;13.09;70.55;101066.78;5127406;27;20043;-56
2023/05/12 10:16:31;;;;;;;12.13;5.35;;;;;;;13.15;70.20;101070.25;5122673;27;20487;-58
2023/05/12 10:18:58;;;;;;;16.58;5.97;;;;;;;13.21;69.62;101072.91;5121296;27;20082;-60
2023/05/12 10:21:25;;;;;;;11.00;5.35;;;;;;;13.27;70.12;101075.50;5125404;27;20047;-59
2023/05/12 10:23:53;;;;;;;11.98;4.82;;;;;;;13.31;69.93;101066.84;5124992;27;20047;-57
2023/05/12 10:26:21;;;;;;;11.63;5.45;;;;;;;13.41;70.09;101077.28;5129334;27;20436;-57
2023/05/12 10:28:49;;;;;;;9.77;4.35;;;;;;;13.44;69.99;101078.13;5126657;27;20107;-58
2023/05/12 10:31:16;;;;;;;11.38;4.95;;;;;;;13.47;69.58;101066.88;5122855;27;20079;-55
2023/05/12 10:33:42;;;;;;;11.52;5.63;;;;;;;13.51;69.75;101073.84;5122755;27;20092;-58
2023/05/12 10:36:18;;;;;;;10.82;4.45;;;;;;;13.42;70.26;101079.00;5133772;27;20055;-60
2023/05/12 10:38:48;;;;;;;15.20;5.70;;;;;;;13.47;70.07;101072.06;5126293;27;20130;-58
2023/05/12 10:41:16;;;;;;;14.98;5.90;;;;;;;13.53;69.50;101077.31;5126447;27;20643;-56
2023/05/12 10:43:46;;;;;;;9.95;4.28;;;;;;;13.59;70.17;101076.47;5122791;27;20115;-58
2023/05/12 10:51:31;;;;;;;9.15;3.55;;;;;;;13.67;68.43;101069.53;5041732;27;20439;-58
2023/05/12 10:54:04;;;;;;;7.13;3.53;;;;;;;13.72;68.38;101064.34;5040348;28;20511;-58
2023/05/12 11:02:04;;;;;;;9.40;5.00;;;;;;;13.90;67.65;101075.59;5048409;27;20399;-57
2023/05/12 11:04:51;;;;;;;7.82;4.00;;;;;;;13.75;68.69;101077.38;5006244;28;20057;-57
2023/05/12 11:07:21;;;;;;;7.05;3.65;;;;;;;13.81;69.34;101077.34;5008777;28;20460;-56
2023/05/12 11:09:50;;;;;;;5.50;3.05;;;;;;;13.78;68.76;101077.34;5018169;28;20048;-59
2023/05/12 11:12:28;;;;;;;9.73;3.97;;;;;;;13.74;68.78;101070.41;5010241;28;20049;-59
2023/05/12 11:14:57;;;;;;;5.72;3.53;;;;;;;13.72;68.62;101067.78;5002179;28;20061;-59
2023/05/12 11:17:25;;;;;;;6.40;3.70;;;;;;;13.75;68.05;101072.16;5015762;28;20076;-59
2023/05/12 11:19:52;;;;;;;7.63;2.95;;;;;;;13.82;67.97;101073.88;5012670;28;20046;-60
2023/05/12 11:22:20;;;;;;;6.88;3.33;;;;;;;13.94;68.42;101066.91;5015652;28;20041;-57
2023/05/12 11:24:48;;;;;;;7.97;3.65;;;;;;;14.02;68.01;101070.41;5008865;28;20129;-59
2023/05/12 11:27:17;;;;;;;11.63;6.25;;;;;;;14.10;68.16;101063.47;5015004;28;20088;-58
2023/05/12 11:29:55;;;;;;;9.52;5.10;;;;;;;14.23;67.70;101059.09;5006044;28;20659;-59
2023/05/12 11:32:21;;;;;;;10.75;4.93;;;;;;;14.33;67.58;101064.28;5004989;28;20509;-60